Notice: Undefined index: language in /home/u294900127/public_html/vam/index.php on line 31
Aeroboteco

 INFORMAÇÕES METEOROLÓGICAS
METAR FOR HLLM
ADDS - METARS form results

(1541 UTC 26 May 2018)
Data provider http://aviationweather.gov/adds/metars/
 
Forecast for: HLLM (MITIGA , LY)
Text: TAF HLLM 251700Z 2518/2618 09012KT CAVOK
Forecast period: 1800 UTC 25 May 2018 to 1800 UTC 26 May 2018
Forecast type: FROM: standard forecast or significant change
Winds: from the E (90 degrees) at 14 MPH (12 knots; 6.2 m/s)
Visibility: 6 or more miles (10+ km)
Clouds: not forecast
Weather: NSW  (no significant weather)

 MAPA DO AEROPORTO

 INFORMAÇÕES DA PISTA
Pista 03 Tamanho da pista 6000 ft Largura da pista 148 ft
Elevação da pista 36 ft Ranhura da pista 0 ft Proa da pista 30
Pista 21 Tamanho da pista 6000 ft Largura da pista 148 ft
Elevação da pista 13 ft Ranhura da pista 0 ft Proa da pista 210
Pista 11 Tamanho da pista 11076 ft Largura da pista 148 ft
Elevação da pista 32 ft Ranhura da pista 0 ft Proa da pista 105
Pista 29 Tamanho da pista 11076 ft Largura da pista 148 ft
Elevação da pista 29 ft Ranhura da pista 0 ft Proa da pista 286

 FREQUÊNCIAS DO AEROPORTO
Tipo TWR Nome TWR Frequência 126.3 MHZ

 AUXÍLIOS DE NAVEGAÇÃO PRÓXIMOS AO AEROPORTO
Tipo VOR Nome Mitiga Frequência 113400 KHZ



Powered by Virtual Airlines Manager [v2.6.2]